Time;durP1;ratioP1;P1;durP2;ratioP2;P2;SDS_P1;SDS_P2;PMS_P1;PMS_P2;Temp;Humidity;BMP_temperature;BMP_pressure;BME280_temperature;BME280_humidity;BME280_pressure;Samples;Min_cycle;Max_cycle;Signal;HPM_P1;HPM_P2
2022/03/28 00:00:31;;;;;;;;;;;21.50;38.90;;;;;;5050388;28;19919;-61
2022/03/28 00:02:58;;;;;;;;;;;21.50;39.00;;;;;;5062793;28;20303;-61
2022/03/28 00:05:23;;;;;;;;;;;21.50;38.90;;;;;;5064224;28;19928;-61
2022/03/28 00:07:49;;;;;;;;;;;21.50;38.90;;;;;;5056763;28;20407;-61
2022/03/28 00:10:14;;;;;;;;;;;21.50;39.00;;;;;;5064486;28;20007;-61
2022/03/28 00:12:40;;;;;;;;;;;21.50;39.00;;;;;;5049415;28;19920;-61
2022/03/28 00:15:06;;;;;;;;;;;21.50;38.80;;;;;;5070078;28;19909;-61
2022/03/28 00:17:32;;;;;;;;;;;21.50;38.80;;;;;;5070722;28;19915;-61
2022/03/28 00:20:01;;;;;;;;;;;21.50;38.80;;;;;;5053097;28;19912;-61
2022/03/28 00:22:26;;;;;;;;;;;21.50;38.80;;;;;;5036863;28;19931;-61
2022/03/28 00:24:52;;;;;;;;;;;21.50;38.80;;;;;;5045589;28;20019;-61
2022/03/28 00:27:18;;;;;;;;;;;21.50;38.90;;;;;;5056172;28;20586;-61
2022/03/28 00:29:43;;;;;;;;;;;21.50;38.80;;;;;;5070847;28;20359;-61
2022/03/28 00:32:09;;;;;;;;;;;21.50;38.80;;;;;;5036496;28;19916;-61
2022/03/28 00:34:34;;;;;;;;;;;21.50;38.60;;;;;;5053094;28;19916;-61
2022/03/28 00:37:00;;;;;;;;;;;21.50;38.50;;;;;;5053299;28;19915;-61
2022/03/28 00:39:25;;;;;;;;;;;21.50;38.60;;;;;;5042953;28;20008;-61
2022/03/28 00:41:51;;;;;;;;;;;21.50;38.70;;;;;;5073935;28;19934;-61
2022/03/28 00:44:16;;;;;;;;;;;21.40;38.60;;;;;;5072872;28;19909;-61
2022/03/28 00:46:42;;;;;;;;;;;21.50;38.50;;;;;;5056171;28;19916;-61
2022/03/28 00:49:07;;;;;;;;;;;21.50;38.50;;;;;;5073056;28;19966;-61
2022/03/28 00:51:33;;;;;;;;;;;21.50;38.40;;;;;;5072670;28;19991;-61
2022/03/28 00:53:58;;;;;;;;;;;21.50;38.50;;;;;;5071987;28;19912;-61
2022/03/28 00:56:24;;;;;;;;;;;21.50;38.50;;;;;;5055560;28;19909;-61
2022/03/28 00:58:49;;;;;;;;;;;21.50;38.40;;;;;;5043613;28;19912;-61
2022/03/28 01:01:15;;;;;;;;;;;21.50;38.40;;;;;;5057978;28;19916;-61
2022/03/28 01:03:41;;;;;;;;;;;21.40;38.40;;;;;;5064410;28;19920;-61
2022/03/28 01:06:06;;;;;;;;;;;21.40;38.50;;;;;;5066667;28;19921;-61
2022/03/28 01:08:32;;;;;;;;;;;21.40;38.50;;;;;;5064644;28;19913;-61
2022/03/28 01:10:57;;;;;;;;;;;21.40;38.40;;;;;;5061099;28;19920;-61
2022/03/28 01:13:23;;;;;;;;;;;21.30;38.40;;;;;;5064005;28;19916;-61
2022/03/28 01:15:49;;;;;;;;;;;21.20;38.50;;;;;;5067981;28;19958;-61
2022/03/28 01:18:15;;;;;;;;;;;21.20;38.60;;;;;;5048824;28;20335;-61
2022/03/28 01:20:40;;;;;;;;;;;21.10;38.70;;;;;;5063307;28;20003;-61
2022/03/28 01:23:06;;;;;;;;;;;21.20;38.90;;;;;;5048127;28;20046;-61
2022/03/28 01:25:32;;;;;;;;;;;21.20;38.80;;;;;;5057976;28;19917;-61
2022/03/28 01:27:58;;;;;;;;;;;21.30;38.70;;;;;;5062352;28;19920;-61
2022/03/28 01:30:24;;;;;;;;;;;21.40;38.60;;;;;;5049799;28;19916;-61
2022/03/28 01:32:50;;;;;;;;;;;21.60;38.40;;;;;;5061608;28;20436;-60
2022/03/28 01:35:30;;;;;;;;;;;21.80;38.10;;;;;;5069079;28;19958;-61
2022/03/28 01:37:55;;;;;;;;;;;22.10;37.70;;;;;;5057463;28;19912;-60
2022/03/28 01:40:21;;;;;;;;;;;22.40;37.30;;;;;;5055824;28;23081;-61
2022/03/28 01:42:49;;;;;;;;;;;22.70;36.90;;;;;;5065926;28;20332;-61
2022/03/28 01:45:15;;;;;;;;;;;23.00;36.40;;;;;;5064467;28;19919;-61
2022/03/28 01:47:40;;;;;;;;;;;23.20;36.10;;;;;;5049958;28;20360;-61
2022/03/28 01:50:06;;;;;;;;;;;23.30;36.10;;;;;;5064768;28;20008;-61
2022/03/28 01:52:32;;;;;;;;;;;23.30;35.90;;;;;;5058424;28;19912;-61
2022/03/28 01:54:57;;;;;;;;;;;23.30;35.90;;;;;;5060510;28;19939;-61
2022/03/28 01:57:23;;;;;;;;;;;23.20;36.10;;;;;;5065651;28;20332;-61
2022/03/28 01:59:48;;;;;;;;;;;23.10;36.00;;;;;;5061307;28;19939;-61
2022/03/28 02:02:13;;;;;;;;;;;23.00;36.20;;;;;;5064221;28;19959;-61
2022/03/28 02:04:39;;;;;;;;;;;22.90;36.50;;;;;;5065843;28;19942;-61
2022/03/28 02:07:04;;;;;;;;;;;22.80;36.60;;;;;;5067603;28;19917;-61
2022/03/28 02:09:30;;;;;;;;;;;22.70;36.80;;;;;;5061048;28;19920;-61
2022/03/28 02:11:55;;;;;;;;;;;22.60;36.90;;;;;;5068100;28;19920;-61
2022/03/28 02:14:21;;;;;;;;;;;22.60;37.00;;;;;;5059586;28;19912;-61
2022/03/28 02:16:47;;;;;;;;;;;22.50;37.00;;;;;;5065679;28;20016;-61
2022/03/28 02:19:12;;;;;;;;;;;22.40;37.00;;;;;;5070229;28;19916;-61
2022/03/28 02:21:38;;;;;;;;;;;22.40;37.10;;;;;;5063677;28;19939;-61
2022/03/28 02:24:03;;;;;;;;;;;22.30;37.00;;;;;;5062711;28;19983;-61
2022/03/28 02:26:29;;;;;;;;;;;22.30;37.20;;;;;;5065765;28;19931;-61
2022/03/28 02:28:54;;;;;;;;;;;22.30;37.20;;;;;;5068959;28;19917;-61
2022/03/28 02:31:20;;;;;;;;;;;22.20;37.10;;;;;;5055609;28;19912;-61
2022/03/28 02:33:45;;;;;;;;;;;22.30;37.20;;;;;;5068161;28;19912;-61
2022/03/28 02:36:11;;;;;;;;;;;22.20;37.00;;;;;;5045399;28;20287;-61
2022/03/28 02:38:36;;;;;;;;;;;22.20;37.10;;;;;;5050539;28;19955;-61
2022/03/28 02:41:02;;;;;;;;;;;22.10;37.40;;;;;;5062009;28;19927;-61
2022/03/28 02:43:27;;;;;;;;;;;22.00;37.60;;;;;;5060447;28;19923;-61
2022/03/28 02:45:53;;;;;;;;;;;21.90;37.70;;;;;;5062595;28;19932;-61
2022/03/28 02:48:18;;;;;;;;;;;21.80;37.70;;;;;;5064786;28;19959;-61
2022/03/28 02:50:45;;;;;;;;;;;21.80;37.70;;;;;;5067236;28;23233;-61
2022/03/28 02:53:11;;;;;;;;;;;21.80;37.60;;;;;;5068380;28;19919;-61
2022/03/28 02:55:36;;;;;;;;;;;21.90;37.60;;;;;;5065931;28;19913;-61
2022/03/28 02:58:01;;;;;;;;;;;21.90;37.50;;;;;;5051359;28;19995;-61
2022/03/28 03:00:27;;;;;;;;;;;21.90;37.30;;;;;;5064462;28;19913;-61
2022/03/28 03:02:53;;;;;;;;;;;22.00;37.20;;;;;;5061492;28;19920;-61
2022/03/28 03:05:18;;;;;;;;;;;22.00;37.10;;;;;;5066659;28;19921;-61
2022/03/28 03:07:44;;;;;;;;;;;22.00;37.10;;;;;;5064139;28;19995;-61
2022/03/28 03:10:09;;;;;;;;;;;22.00;37.10;;;;;;5061583;28;19913;-61
2022/03/28 03:12:35;;;;;;;;;;;22.00;37.10;;;;;;5050068;28;19920;-61
2022/03/28 03:15:00;;;;;;;;;;;22.00;37.10;;;;;;5061033;28;19912;-61
2022/03/28 03:17:25;;;;;;;;;;;22.00;37.10;;;;;;5068211;28;20292;-61
2022/03/28 03:19:51;;;;;;;;;;;22.00;37.20;;;;;;5067843;28;19920;-61
2022/03/28 03:22:17;;;;;;;;;;;22.00;37.30;;;;;;5050910;28;19951;-61
2022/03/28 03:24:42;;;;;;;;;;;21.90;37.30;;;;;;5052212;28;19919;-61
2022/03/28 03:27:08;;;;;;;;;;;21.90;37.40;;;;;;5061589;28;19921;-61
2022/03/28 03:29:34;;;;;;;;;;;21.90;37.50;;;;;;5069050;28;19920;-61
2022/03/28 03:31:59;;;;;;;;;;;21.80;37.50;;;;;;5060639;28;19966;-61
2022/03/28 03:34:25;;;;;;;;;;;21.80;37.70;;;;;;5065570;28;20349;-61
2022/03/28 03:36:50;;;;;;;;;;;21.70;37.60;;;;;;5066718;28;19975;-61
2022/03/28 03:39:15;;;;;;;;;;;21.80;37.70;;;;;;5068210;28;19923;-61
2022/03/28 03:41:41;;;;;;;;;;;21.70;37.70;;;;;;5065399;28;19918;-61
2022/03/28 03:44:06;;;;;;;;;;;21.70;37.70;;;;;;5064738;28;19958;-61
2022/03/28 03:46:32;;;;;;;;;;;21.70;37.80;;;;;;5067272;28;19916;-61
2022/03/28 03:48:58;;;;;;;;;;;21.60;37.70;;;;;;5049930;28;19916;-61
2022/03/28 03:51:23;;;;;;;;;;;21.60;37.80;;;;;;5064746;28;19916;-61
2022/03/28 03:53:49;;;;;;;;;;;21.60;37.80;;;;;;5063913;28;19923;-61
2022/03/28 03:56:14;;;;;;;;;;;21.70;37.90;;;;;;5067307;28;19966;-61
2022/03/28 03:58:40;;;;;;;;;;;21.80;37.90;;;;;;5044772;28;19962;-61
2022/03/28 04:01:05;;;;;;;;;;;21.80;37.70;;;;;;5054159;28;19913;-61
2022/03/28 04:03:33;;;;;;;;;;;21.90;37.60;;;;;;5064922;28;19929;-61
2022/03/28 04:05:58;;;;;;;;;;;21.90;37.50;;;;;;5068001;28;19968;-60
2022/03/28 04:08:24;;;;;;;;;;;21.90;37.30;;;;;;5063049;28;20736;-61
2022/03/28 04:10:49;;;;;;;;;;;22.00;37.20;;;;;;5068962;28;19916;-61
2022/03/28 04:13:15;;;;;;;;;;;22.00;37.20;;;;;;5068772;28;19913;-61
2022/03/28 04:15:40;;;;;;;;;;;22.00;37.10;;;;;;5062155;28;20387;-61
2022/03/28 04:18:06;;;;;;;;;;;21.90;37.10;;;;;;5044590;28;19982;-61
2022/03/28 04:20:32;;;;;;;;;;;21.90;37.20;;;;;;5067229;28;19917;-61
2022/03/28 04:22:57;;;;;;;;;;;21.90;37.60;;;;;;5065833;28;20253;-61
2022/03/28 04:25:23;;;;;;;;;;;21.90;37.30;;;;;;5043953;28;19923;-61
2022/03/28 04:27:48;;;;;;;;;;;21.80;37.20;;;;;;5062685;28;19924;-62
2022/03/28 04:30:14;;;;;;;;;;;21.80;37.20;;;;;;5065184;28;19912;-61
2022/03/28 04:32:39;;;;;;;;;;;21.80;37.20;;;;;;5067211;28;19944;-61
2022/03/28 04:35:05;;;;;;;;;;;21.80;37.30;;;;;;5064937;28;19966;-61
2022/03/28 04:37:34;;;;;;;;;;;21.70;37.20;;;;;;5064113;28;19913;-61
2022/03/28 04:40:00;;;;;;;;;;;21.70;37.30;;;;;;5059971;28;19920;-61
2022/03/28 04:42:25;;;;;;;;;;;21.70;37.40;;;;;;5045554;28;19936;-61
2022/03/28 04:44:51;;;;;;;;;;;21.70;37.40;;;;;;5063338;28;20357;-61
2022/03/28 04:47:16;;;;;;;;;;;21.60;37.40;;;;;;5047431;28;19916;-61
2022/03/28 04:49:42;;;;;;;;;;;21.70;37.50;;;;;;5062162;28;19912;-61
2022/03/28 04:52:07;;;;;;;;;;;21.60;37.30;;;;;;5057167;28;19921;-61
2022/03/28 04:54:33;;;;;;;;;;;21.70;37.40;;;;;;5049422;28;19916;-61
2022/03/28 04:56:58;;;;;;;;;;;21.70;37.40;;;;;;5067906;28;19916;-61
2022/03/28 04:59:24;;;;;;;;;;;21.70;37.40;;;;;;5060637;28;19934;-61
2022/03/28 05:01:49;;;;;;;;;;;21.70;37.40;;;;;;5063103;28;19920;-61
2022/03/28 05:04:15;;;;;;;;;;;21.70;37.30;;;;;;5064156;28;19925;-61
2022/03/28 05:06:41;;;;;;;;;;;21.80;37.40;;;;;;5057608;28;20375;-61
2022/03/28 05:09:06;;;;;;;;;;;21.80;37.60;;;;;;5062681;28;19919;-61
2022/03/28 05:11:32;;;;;;;;;;;21.80;37.20;;;;;;5047312;28;20257;-61
2022/03/28 05:14:00;;;;;;;;;;;21.80;37.20;;;;;;5051012;28;20298;-61
2022/03/28 05:16:26;;;;;;;;;;;21.80;37.10;;;;;;5043947;28;19912;-61
2022/03/28 05:18:51;;;;;;;;;;;21.90;37.10;;;;;;5064371;28;19944;-61
2022/03/28 05:21:17;;;;;;;;;;;21.90;37.10;;;;;;5061210;28;19913;-61
2022/03/28 05:23:42;;;;;;;;;;;21.80;37.00;;;;;;5062326;28;19990;-61
2022/03/28 05:26:07;;;;;;;;;;;21.80;37.00;;;;;;5064406;28;20318;-61
2022/03/28 05:28:33;;;;;;;;;;;21.80;37.00;;;;;;5065098;28;19916;-61
2022/03/28 05:30:58;;;;;;;;;;;21.80;37.00;;;;;;5062204;28;19913;-61
2022/03/28 05:33:24;;;;;;;;;;;21.80;37.10;;;;;;5061272;28;19944;-61
2022/03/28 05:35:50;;;;;;;;;;;21.80;37.20;;;;;;5064157;28;19919;-61
2022/03/28 05:38:16;;;;;;;;;;;21.80;37.10;;;;;;5067179;28;19973;-61
2022/03/28 05:40:41;;;;;;;;;;;21.80;37.10;;;;;;5068371;28;19920;-61
2022/03/28 05:43:07;;;;;;;;;;;21.80;37.20;;;;;;5061995;28;19913;-61
2022/03/28 05:45:34;;;;;;;;;;;21.80;37.20;;;;;;5069746;28;19913;-60
2022/03/28 05:48:00;;;;;;;;;;;21.80;37.20;;;;;;5063045;28;19948;-61
2022/03/28 05:50:25;;;;;;;;;;;21.70;37.10;;;;;;5069878;28;20345;-61
2022/03/28 05:52:50;;;;;;;;;;;21.80;37.20;;;;;;5066247;28;20295;-60
2022/03/28 05:55:16;;;;;;;;;;;21.80;37.30;;;;;;5064613;28;20270;-61
2022/03/28 05:57:41;;;;;;;;;;;21.80;37.40;;;;;;5063108;28;19912;-61
2022/03/28 06:00:09;;;;;;;;;;;21.80;37.40;;;;;;5066594;28;20066;-61
2022/03/28 06:02:35;;;;;;;;;;;21.80;37.50;;;;;;5051190;28;20344;-61
2022/03/28 06:05:01;;;;;;;;;;;21.70;37.40;;;;;;5065355;28;19961;-61
2022/03/28 06:07:26;;;;;;;;;;;21.70;37.50;;;;;;5051724;28;19923;-61
2022/03/28 06:09:52;;;;;;;;;;;21.70;37.40;;;;;;5055289;28;19996;-61
2022/03/28 06:12:17;;;;;;;;;;;21.80;37.40;;;;;;5070962;28;19916;-61
2022/03/28 06:14:42;;;;;;;;;;;21.80;37.50;;;;;;5068001;28;19967;-61
2022/03/28 06:17:08;;;;;;;;;;;21.80;37.50;;;;;;5052054;28;19920;-61
2022/03/28 06:19:33;;;;;;;;;;;21.70;37.50;;;;;;5068666;28;20431;-61
2022/03/28 06:21:59;;;;;;;;;;;21.70;37.60;;;;;;5065498;28;20311;-61
2022/03/28 06:24:24;;;;;;;;;;;21.70;37.70;;;;;;5067059;28;20379;-61
2022/03/28 06:26:50;;;;;;;;;;;21.70;37.70;;;;;;5063466;28;19916;-61
2022/03/28 06:29:15;;;;;;;;;;;21.60;37.80;;;;;;5065135;28;19917;-61
2022/03/28 06:31:41;;;;;;;;;;;21.60;37.90;;;;;;5065523;28;19938;-61
2022/03/28 06:34:07;;;;;;;;;;;21.60;38.00;;;;;;5071041;28;19917;-61
2022/03/28 06:36:33;;;;;;;;;;;21.60;38.00;;;;;;5066359;28;19912;-60
2022/03/28 06:39:00;;;;;;;;;;;21.60;38.00;;;;;;5060587;28;19916;-60
2022/03/28 06:41:25;;;;;;;;;;;21.60;38.00;;;;;;5064420;28;19912;-61
2022/03/28 06:43:51;;;;;;;;;;;21.60;38.00;;;;;;5062874;28;20015;-61
2022/03/28 06:46:16;;;;;;;;;;;21.60;37.90;;;;;;5068123;28;19916;-61
2022/03/28 06:48:42;;;;;;;;;;;21.70;38.00;;;;;;5053251;28;20329;-61
2022/03/28 06:51:08;;;;;;;;;;;21.70;37.90;;;;;;5063373;28;19990;-61
2022/03/28 06:53:33;;;;;;;;;;;21.70;37.80;;;;;;5062803;28;20399;-61
2022/03/28 06:55:59;;;;;;;;;;;21.70;37.90;;;;;;5065303;28;20260;-60
2022/03/28 06:58:24;;;;;;;;;;;21.80;38.00;;;;;;5050298;28;19919;-61
2022/03/28 07:00:50;;;;;;;;;;;21.70;38.00;;;;;;5067873;28;19920;-60
2022/03/28 07:03:15;;;;;;;;;;;21.70;38.70;;;;;;5058437;28;19913;-61
2022/03/28 07:05:41;;;;;;;;;;;21.70;38.00;;;;;;5060921;28;19921;-61
2022/03/28 07:08:07;;;;;;;;;;;21.70;38.10;;;;;;5066860;28;20380;-61
2022/03/28 07:10:33;;;;;;;;;;;21.70;38.10;;;;;;5045634;28;19986;-60
2022/03/28 07:12:59;;;;;;;;;;;21.80;38.20;;;;;;5061717;28;19921;-61
2022/03/28 07:15:26;;;;;;;;;;;21.80;38.10;;;;;;5061578;28;19920;-61
2022/03/28 07:17:54;;;;;;;;;;;21.80;38.00;;;;;;5064094;28;19913;-61
2022/03/28 07:20:23;;;;;;;;;;;21.90;38.10;;;;;;5051944;28;20230;-60
2022/03/28 07:22:48;;;;;;;;;;;21.80;38.00;;;;;;5062214;28;19978;-60
2022/03/28 07:25:14;;;;;;;;;;;21.90;38.10;;;;;;5063301;28;20332;-60
2022/03/28 07:27:40;;;;;;;;;;;21.80;38.00;;;;;;5064281;28;20344;-60
2022/03/28 07:30:06;;;;;;;;;;;21.80;38.10;;;;;;5064173;28;19917;-60
2022/03/28 07:32:32;;;;;;;;;;;21.80;38.20;;;;;;5067457;28;19912;-60
2022/03/28 07:34:57;;;;;;;;;;;21.70;38.20;;;;;;5068317;28;19912;-60
2022/03/28 07:37:23;;;;;;;;;;;21.70;38.30;;;;;;5068284;28;19927;-60
2022/03/28 07:39:48;;;;;;;;;;;21.70;38.40;;;;;;5065749;28;19917;-61
2022/03/28 07:42:14;;;;;;;;;;;21.70;38.40;;;;;;5071231;28;19920;-60
2022/03/28 07:44:41;;;;;;;;;;;21.70;38.40;;;;;;5072130;28;20007;-61
2022/03/28 07:47:08;;;;;;;;;;;21.70;38.40;;;;;;5055871;28;20371;-60
2022/03/28 07:49:35;;;;;;;;;;;21.70;38.40;;;;;;5056112;28;19923;-61
2022/03/28 07:52:01;;;;;;;;;;;21.70;38.40;;;;;;5072561;28;19917;-60
2022/03/28 07:54:27;;;;;;;;;;;21.70;38.50;;;;;;5070743;28;20304;-60
2022/03/28 07:56:52;;;;;;;;;;;21.70;38.70;;;;;;5072367;28;19956;-59
2022/03/28 07:59:18;;;;;;;;;;;21.80;39.00;;;;;;5057021;28;19924;-59
2022/03/28 08:01:43;;;;;;;;;;;21.80;39.00;;;;;;5068401;28;20291;-59
2022/03/28 08:04:08;;;;;;;;;;;21.70;39.30;;;;;;5067035;28;19920;-58
2022/03/28 08:06:34;;;;;;;;;;;21.70;39.60;;;;;;5071975;28;19979;-59
2022/03/28 08:08:59;;;;;;;;;;;21.60;39.60;;;;;;5053652;28;19908;-59
2022/03/28 08:11:25;;;;;;;;;;;21.60;39.70;;;;;;5070652;28;19912;-59
2022/03/28 08:13:50;;;;;;;;;;;21.50;39.70;;;;;;5072024;28;19912;-59
2022/03/28 08:16:16;;;;;;;;;;;21.60;39.60;;;;;;5069286;28;19919;-60
2022/03/28 08:18:41;;;;;;;;;;;21.70;39.70;;;;;;5068952;28;19959;-60
2022/03/28 08:21:15;;;;;;;;;;;21.70;39.60;;;;;;5127346;27;20010;-61
2022/03/28 08:23:40;;;;;;;;;;;21.70;39.60;;;;;;5093298;28;20019;-61
2022/03/28 08:26:06;;;;;;;;;;;21.70;39.80;;;;;;5091209;28;19912;-61
2022/03/28 08:28:32;;;;;;;;;;;21.70;39.60;;;;;;5091717;28;19915;-59
2022/03/28 08:30:57;;;;;;;;;;;21.70;39.70;;;;;;5092755;28;19916;-60
2022/03/28 08:33:22;;;;;;;;;;;21.70;39.70;;;;;;5091383;28;19916;-60
2022/03/28 08:35:48;;;;;;;;;;;21.80;39.60;;;;;;5118195;28;19912;-60
2022/03/28 08:38:13;;;;;;;;;;;21.80;39.50;;;;;;5092372;28;19919;-59
2022/03/28 08:40:42;;;;;;;;;;;21.90;39.40;;;;;;5111084;28;19999;-60
2022/03/28 08:43:08;;;;;;;;;;;22.00;39.40;;;;;;5110993;28;20031;-60
2022/03/28 08:45:35;;;;;;;;;;;22.00;39.40;;;;;;5071967;28;20449;-60
2022/03/28 08:48:01;;;;;;;;;;;22.00;39.30;;;;;;5096969;28;19908;-59
2022/03/28 08:50:27;;;;;;;;;;;22.00;39.40;;;;;;5090826;28;19912;-59
2022/03/28 08:52:52;;;;;;;;;;;22.00;39.40;;;;;;5113861;28;19908;-60
2022/03/28 08:55:19;;;;;;;;;;;22.00;39.60;;;;;;5114774;28;19916;-59
2022/03/28 08:57:44;;;;;;;;;;;22.00;39.70;;;;;;5108464;28;19999;-60
2022/03/28 09:00:10;;;;;;;;;;;21.90;39.70;;;;;;5124505;28;20006;-61
2022/03/28 09:02:46;;;;;;;;;;;21.90;39.90;;;;;;5111904;28;20331;-61
2022/03/28 09:05:15;;;;;;;;;;;21.80;39.90;;;;;;5065615;28;20356;-59
2022/03/28 09:07:41;;;;;;;;;;;21.90;40.00;;;;;;5052008;28;20276;-61
2022/03/28 09:10:16;;;;;;;;;;;21.90;39.90;;;;;;5080922;28;20333;-61
2022/03/28 09:13:00;;;;;;;;;;;21.90;39.90;;;;;;5076689;28;20367;-61
2022/03/28 09:15:29;;;;;;;;;;;21.90;39.90;;;;;;5084972;28;19923;-60
2022/03/28 09:17:58;;;;;;;;;;;21.80;39.80;;;;;;5072510;28;20265;-60
2022/03/28 09:20:24;;;;;;;;;;;21.90;40.00;;;;;;5073679;28;19924;-60
2022/03/28 09:22:49;;;;;;;;;;;21.80;40.00;;;;;;5091341;28;19912;-60
2022/03/28 09:25:16;;;;;;;;;;;21.80;40.00;;;;;;5086061;28;20387;-61
2022/03/28 09:27:44;;;;;;;;;;;21.80;40.00;;;;;;5090092;28;19912;-61
2022/03/28 09:30:14;;;;;;;;;;;21.80;39.90;;;;;;5082566;28;20360;-60
2022/03/28 09:32:40;;;;;;;;;;;21.90;40.00;;;;;;5044552;28;19961;-60
2022/03/28 09:35:21;;;;;;;;;;;21.90;39.90;;;;;;5063868;28;19975;-61
2022/03/28 09:37:47;;;;;;;;;;;21.90;39.80;;;;;;5088205;28;19954;-61
2022/03/28 09:40:23;;;;;;;;;;;22.00;39.70;;;;;;5090342;28;20355;-60
2022/03/28 09:42:48;;;;;;;;;;;22.00;39.70;;;;;;5038564;28;20003;-61
2022/03/28 09:45:17;;;;;;;;;;;22.00;39.70;;;;;;5054927;28;20012;-60
2022/03/28 09:47:53;;;;;;;;;;;22.00;39.70;;;;;;5075169;28;19995;-60
2022/03/28 09:50:25;;;;;;;;;;;22.00;39.70;;;;;;5058269;28;19916;-61
2022/03/28 09:52:51;;;;;;;;;;;21.90;39.70;;;;;;5063324;28;19916;-61
2022/03/28 09:55:16;;;;;;;;;;;22.00;39.90;;;;;;5074700;28;20034;-60
2022/03/28 09:57:42;;;;;;;;;;;21.90;39.90;;;;;;5075345;28;19940;-61
2022/03/28 10:00:14;;;;;;;;;;;21.90;40.00;;;;;;5065520;28;19970;-61
2022/03/28 10:02:39;;;;;;;;;;;21.90;40.20;;;;;;5057656;28;19909;-62
2022/03/28 10:05:05;;;;;;;;;;;21.90;40.10;;;;;;5064607;28;19961;-62
2022/03/28 10:07:31;;;;;;;;;;;21.80;40.00;;;;;;5038646;28;20003;-61
2022/03/28 10:09:57;;;;;;;;;;;21.80;40.00;;;;;;5054246;28;19912;-61
2022/03/28 10:12:22;;;;;;;;;;;21.80;40.20;;;;;;5077936;28;19913;-61
2022/03/28 10:14:54;;;;;;;;;;;21.80;40.20;;;;;;5072170;28;19970;-60
2022/03/28 10:17:19;;;;;;;;;;;22.00;40.20;;;;;;5055041;28;19913;-62
2022/03/28 10:19:45;;;;;;;;;;;22.10;39.90;;;;;;5063445;28;19928;-62
2022/03/28 10:22:12;;;;;;;;;;;22.30;39.60;;;;;;5034064;28;19913;-60
2022/03/28 10:24:38;;;;;;;;;;;22.50;39.60;;;;;;5033382;28;19912;-61
2022/03/28 10:27:03;;;;;;;;;;;22.50;39.40;;;;;;5030021;28;19928;-61
2022/03/28 10:29:33;;;;;;;;;;;22.60;39.40;;;;;;5031740;28;20360;-61
2022/03/28 10:31:59;;;;;;;;;;;22.70;39.30;;;;;;5051497;28;19916;-61
2022/03/28 10:34:44;;;;;;;;;;;22.70;39.10;;;;;;5065099;28;19995;-59
2022/03/28 10:37:21;;;;;;;;;;;22.80;39.00;;;;;;5039223;28;19916;-60
2022/03/28 10:39:47;;;;;;;;;;;22.90;38.80;;;;;;5023251;28;20018;-60
2022/03/28 10:42:13;;;;;;;;;;;23.00;38.80;;;;;;5032726;28;20719;-61
2022/03/28 10:44:59;;;;;;;;;;;23.00;38.80;;;;;;5018660;28;19963;-60
2022/03/28 10:47:44;;;;;;;;;;;22.90;38.70;;;;;;5051588;28;19920;-61
2022/03/28 10:50:10;;;;;;;;;;;22.80;38.90;;;;;;5034084;28;20373;-61
2022/03/28 10:52:35;;;;;;;;;;;22.80;39.00;;;;;;5053660;28;20442;-61
2022/03/28 10:55:07;;;;;;;;;;;22.70;39.00;;;;;;5031387;28;19908;-61
2022/03/28 10:57:34;;;;;;;;;;;22.70;39.30;;;;;;5035144;28;19917;-61
2022/03/28 11:00:00;;;;;;;;;;;22.60;39.40;;;;;;5018737;28;19979;-61
2022/03/28 11:02:28;;;;;;;;;;;22.50;39.60;;;;;;5036086;28;19916;-61
2022/03/28 11:04:54;;;;;;;;;;;22.40;39.60;;;;;;5032220;28;20007;-61
2022/03/28 11:07:22;;;;;;;;;;;22.40;39.90;;;;;;5046794;28;19996;-61
2022/03/28 11:09:51;;;;;;;;;;;22.30;39.90;;;;;;5032989;28;20007;-61
2022/03/28 11:12:18;;;;;;;;;;;22.30;40.00;;;;;;5019340;28;19916;-61
2022/03/28 11:15:05;;;;;;;;;;;22.30;40.00;;;;;;5031903;28;20377;-61
2022/03/28 11:17:36;;;;;;;;;;;22.30;40.00;;;;;;5035995;28;19960;-61
2022/03/28 11:20:07;;;;;;;;;;;22.40;40.10;;;;;;5060785;28;19927;-61
2022/03/28 11:22:39;;;;;;;;;;;22.40;40.00;;;;;;5072073;28;19912;-60
2022/03/28 11:25:05;;;;;;;;;;;22.50;39.90;;;;;;5089966;28;19931;-60
2022/03/28 11:27:31;;;;;;;;;;;22.50;39.70;;;;;;5051046;28;19912;-59
2022/03/28 11:30:00;;;;;;;;;;;22.60;39.60;;;;;;5042767;28;19920;-59
2022/03/28 11:32:28;;;;;;;;;;;22.60;39.50;;;;;;5079362;28;19912;-59
2022/03/28 11:34:54;;;;;;;;;;;22.70;39.50;;;;;;5054009;28;20003;-59
2022/03/28 11:37:23;;;;;;;;;;;22.70;39.30;;;;;;5057892;28;19991;-59
2022/03/28 11:39:53;;;;;;;;;;;22.70;39.50;;;;;;5058066;28;19916;-60
2022/03/28 11:42:19;;;;;;;;;;;22.70;39.50;;;;;;5044289;28;19956;-60
2022/03/28 11:44:45;;;;;;;;;;;22.70;39.50;;;;;;5052415;28;19959;-63
2022/03/28 11:47:10;;;;;;;;;;;22.70;39.50;;;;;;5067757;28;19948;-60
2022/03/28 11:49:42;;;;;;;;;;;22.70;39.60;;;;;;5051580;28;19921;-60
2022/03/28 11:52:07;;;;;;;;;;;22.70;39.60;;;;;;5041846;28;19913;-59
2022/03/28 11:54:32;;;;;;;;;;;22.60;39.50;;;;;;5083121;28;20413;-60
2022/03/28 11:59:42;;;;;;;;;;;22.70;39.60;;;;;;5083647;28;19956;-59
2022/03/28 12:02:08;;;;;;;;;;;22.70;39.80;;;;;;5055961;28;19909;-59
2022/03/28 12:04:34;;;;;;;;;;;22.70;39.80;;;;;;5062214;28;19913;-59
2022/03/28 12:06:59;;;;;;;;;;;22.70;39.90;;;;;;5058176;28;19999;-62
2022/03/28 12:09:25;;;;;;;;;;;22.70;40.10;;;;;;5082179;28;20290;-62
2022/03/28 12:11:54;;;;;;;;;;;22.70;40.10;;;;;;5092652;28;19908;-59
2022/03/28 12:14:20;;;;;;;;;;;22.70;40.20;;;;;;5092397;28;19958;-59
2022/03/28 12:16:45;;;;;;;;;;;22.70;40.30;;;;;;5073662;28;19908;-60
2022/03/28 12:19:18;;;;;;;;;;;22.70;40.40;;;;;;5086313;28;19920;-60
2022/03/28 12:21:43;;;;;;;;;;;22.60;40.30;;;;;;5045893;28;20395;-60
2022/03/28 12:24:09;;;;;;;;;;;22.60;40.60;;;;;;5087683;28;19908;-60
2022/03/28 12:26:41;;;;;;;;;;;22.70;40.70;;;;;;5038324;28;19909;-60
2022/03/28 12:29:09;;;;;;;;;;;22.60;40.60;;;;;;5061344;28;19919;-60
2022/03/28 12:31:34;;;;;;;;;;;22.70;40.60;;;;;;5053462;28;19928;-60
2022/03/28 12:33:59;;;;;;;;;;;22.70;40.70;;;;;;5063204;28;19915;-59
2022/03/28 12:36:25;;;;;;;;;;;22.70;40.70;;;;;;5070512;28;20356;-60
2022/03/28 12:38:56;;;;;;;;;;;22.80;40.70;;;;;;5072243;28;20451;-59
2022/03/28 12:41:22;;;;;;;;;;;22.80;40.70;;;;;;5070773;28;19916;-60
2022/03/28 12:43:48;;;;;;;;;;;22.80;40.60;;;;;;5062264;28;20010;-60
2022/03/28 12:46:15;;;;;;;;;;;22.80;40.60;;;;;;5073672;28;19959;-60
2022/03/28 12:48:43;;;;;;;;;;;22.80;40.60;;;;;;5041875;28;19979;-60
2022/03/28 12:51:08;;;;;;;;;;;22.80;40.60;;;;;;5057970;28;19961;-61
2022/03/28 12:53:34;;;;;;;;;;;22.80;40.60;;;;;;5084108;28;19916;-60
2022/03/28 12:56:20;;;;;;;;;;;22.80;40.60;;;;;;5054786;28;19920;-60
2022/03/28 12:58:52;;;;;;;;;;;22.80;40.60;;;;;;5041787;28;19962;-60
2022/03/28 13:01:20;;;;;;;;;;;22.90;40.60;;;;;;5081729;28;19939;-60
2022/03/28 13:03:45;;;;;;;;;;;22.80;40.60;;;;;;5064037;28;19916;-59
2022/03/28 13:06:16;;;;;;;;;;;22.80;40.60;;;;;;5048959;28;19913;-61
2022/03/28 13:08:42;;;;;;;;;;;22.80;40.60;;;;;;5061277;28;20644;-60
2022/03/28 13:11:14;;;;;;;;;;;22.70;40.70;;;;;;5056243;28;19974;-60
2022/03/28 13:13:40;;;;;;;;;;;22.70;40.60;;;;;;5040691;28;19915;-60
2022/03/28 13:16:06;;;;;;;;;;;22.70;40.60;;;;;;5064071;28;19908;-59
2022/03/28 13:18:33;;;;;;;;;;;22.70;40.70;;;;;;5058618;28;20413;-59
2022/03/28 13:20:58;;;;;;;;;;;22.70;40.70;;;;;;5093362;28;19920;-58
2022/03/28 13:23:24;;;;;;;;;;;22.70;40.80;;;;;;5076690;28;19919;-59
2022/03/28 13:25:50;;;;;;;;;;;22.70;40.80;;;;;;5074783;28;19916;-60
2022/03/28 13:28:22;;;;;;;;;;;22.60;40.90;;;;;;5077982;28;20340;-60
2022/03/28 13:30:50;;;;;;;;;;;22.70;40.90;;;;;;5042986;28;19912;-60
2022/03/28 13:33:16;;;;;;;;;;;22.70;40.80;;;;;;5077445;28;20386;-59
2022/03/28 13:35:42;;;;;;;;;;;22.70;40.90;;;;;;5086973;28;19914;-59
2022/03/28 13:38:09;;;;;;;;;;;22.70;40.80;;;;;;5066875;28;20007;-60
2022/03/28 13:40:35;;;;;;;;;;;22.70;40.70;;;;;;5076060;28;19990;-62
2022/03/28 13:43:00;;;;;;;;;;;22.70;40.70;;;;;;5074009;28;20352;-62
2022/03/28 13:45:26;;;;;;;;;;;22.80;40.70;;;;;;5064544;28;19927;-60
2022/03/28 13:47:52;;;;;;;;;;;22.90;40.70;;;;;;5070179;28;19912;-60
2022/03/28 13:50:17;;;;;;;;;;;22.90;40.60;;;;;;5087478;28;19943;-60
2022/03/28 13:52:43;;;;;;;;;;;22.90;40.60;;;;;;5053965;28;19950;-62
2022/03/28 13:55:09;;;;;;;;;;;22.90;40.50;;;;;;5041365;28;24888;-61
2022/03/28 13:57:34;;;;;;;;;;;22.90;40.40;;;;;;5052564;28;19944;-60
2022/03/28 14:00:00;;;;;;;;;;;22.90;40.50;;;;;;5054406;28;19920;-60
2022/03/28 14:02:25;;;;;;;;;;;22.90;40.50;;;;;;5092276;28;19908;-61
2022/03/28 14:04:51;;;;;;;;;;;22.80;40.40;;;;;;5069877;28;20007;-60
2022/03/28 14:07:16;;;;;;;;;;;22.80;40.60;;;;;;5049566;28;19967;-60
2022/03/28 14:09:42;;;;;;;;;;;22.80;40.60;;;;;;5056966;28;19912;-60
2022/03/28 14:12:07;;;;;;;;;;;22.70;40.70;;;;;;5062666;28;19920;-59
2022/03/28 14:14:35;;;;;;;;;;;22.70;40.90;;;;;;5064135;28;19913;-59